KNUI

Webster Nolf Airport

St Inigoes, Maryland, USA
METAR KNUI 261253Z AUTO 21010KT 8SM CLR 26/21 A2990 RMK AO2 SLP124 T02560211
Observed Flight Rules
May-26 @ 12:53 UTC (35 minutes ago) Visual Flight Rules
Wind Visibility Clouds
210° at 10 knots 8 miles
  • Clear skies
Temperatures Readings
Current 26°C / 79°F
Dewpoint 21°C / 70°F
Humidity 74%
Altimeter 29.9" Hg
Pressure 1012.4 hPa
Elevation 7
METAR KNUI 261253Z AUTO 21010KT 8SM CLR 26/21 A2990 RMK AO2 SLP124 T02560211
Observed Flight Rules
May-26 @ 12:53 UTC
(35 minutes ago)
VFR
Wind Visibility
210° at 10 knots 8 miles
Clouds
  • Clear skies
Temperature Dewpoint
26°C / 79°F 21°C / 70°F
Humidity Altimeter Pressure
74% 29.9" Hg 1012.4 hPa